createdAt,value
2023-01-23T00:00:50.343Z,11.80
2023-01-23T00:04:50.389Z,12.90
2023-01-23T00:08:50.912Z,12.40
2023-01-23T00:12:53.420Z,11.83
2023-01-23T00:16:56.480Z,13.13
2023-01-23T00:20:56.592Z,13.47
2023-01-23T00:24:56.705Z,13.23
2023-01-23T00:28:58.003Z,12.73
2023-01-23T00:33:00.620Z,13.00
2023-01-23T00:37:00.634Z,13.00
2023-01-23T00:41:00.718Z,13.80
2023-01-23T00:45:00.813Z,12.87
2023-01-23T00:49:03.534Z,13.57
2023-01-23T00:53:03.664Z,12.93
2023-01-23T00:57:03.860Z,13.67
2023-01-23T01:01:03.981Z,12.10
2023-01-23T01:05:09.197Z,12.13
2023-01-23T01:09:09.329Z,12.93
2023-01-23T01:13:13.318Z,13.53
2023-01-23T01:17:13.644Z,13.47
2023-01-23T01:21:21.656Z,13.13
2023-01-23T01:25:22.712Z,13.47
2023-01-23T01:29:22.890Z,13.80
2023-01-23T01:33:24.331Z,13.43
2023-01-23T01:37:28.023Z,15.17
2023-01-23T01:41:28.167Z,14.47
2023-01-23T01:46:12.320Z,14.27
2023-01-23T01:50:13.750Z,16.23
2023-01-23T01:54:28.400Z,14.67
2023-01-23T01:58:30.411Z,15.87
2023-01-23T02:02:36.063Z,14.00
2023-01-23T02:06:36.249Z,14.87
2023-01-23T02:10:40.402Z,14.70
2023-01-23T02:14:40.710Z,13.83
2023-01-23T02:18:46.351Z,13.87
2023-01-23T02:22:58.226Z,13.03
2023-01-23T02:27:00.935Z,13.27
2023-01-23T02:31:01.260Z,12.47
2023-01-23T02:35:08.185Z,12.90
2023-01-23T02:39:14.429Z,13.10
2023-01-23T02:43:22.801Z,12.33
2023-01-23T02:47:29.863Z,12.10
2023-01-23T02:51:31.435Z,12.97
2023-01-23T02:55:33.304Z,13.60
2023-01-23T02:59:48.560Z,12.77
2023-01-23T03:03:51.496Z,13.87
2023-01-23T03:07:51.509Z,12.63
2023-01-23T03:11:52.307Z,12.97
2023-01-23T03:15:56.454Z,14.67
2023-01-23T03:19:57.876Z,12.73
2023-01-23T03:23:58.843Z,13.30
2023-01-23T03:27:58.948Z,11.60
2023-01-23T03:32:01.796Z,11.43
2023-01-23T03:36:01.909Z,11.00
2023-01-23T03:40:26.230Z,11.23
2023-01-23T03:44:27.482Z,11.57
2023-01-23T03:48:30.218Z,12.37
2023-01-23T03:52:30.774Z,13.07
2023-01-23T03:56:31.332Z,12.33
2023-01-23T04:00:31.604Z,11.57
2023-01-23T04:04:39.615Z,12.40
2023-01-23T04:08:41.591Z,11.60
2023-01-23T04:12:45.588Z,12.60
2023-01-23T04:16:46.434Z,12.07
2023-01-23T04:20:49.148Z,12.30
2023-01-23T04:24:49.320Z,12.23
2023-01-23T04:28:49.766Z,14.73
2023-01-23T04:32:49.966Z,11.83
2023-01-23T04:36:54.669Z,12.90
2023-01-23T04:40:55.616Z,12.80
2023-01-23T04:44:55.708Z,13.00
2023-01-23T04:49:14.201Z,13.63
2023-01-23T04:53:17.332Z,12.97
2023-01-23T04:57:18.408Z,11.67
2023-01-23T05:01:23.376Z,12.00
2023-01-23T05:05:28.241Z,12.43
2023-01-23T05:09:35.098Z,12.93
2023-01-23T05:13:36.857Z,12.17
2023-01-23T05:17:37.001Z,12.80
2023-01-23T05:21:37.246Z,12.93
2023-01-23T05:25:39.958Z,12.00
2023-01-23T05:29:40.405Z,12.13
2023-01-23T05:33:51.525Z,19.37
2023-01-23T05:37:53.242Z,12.13
2023-01-23T05:41:59.228Z,12.03
2023-01-23T05:46:17.996Z,11.13
2023-01-23T05:50:24.887Z,10.53
2023-01-23T05:54:26.275Z,11.63
2023-01-23T05:58:29.184Z,11.23
2023-01-23T06:02:50.166Z,11.67
2023-01-23T06:07:10.885Z,12.00
2023-01-23T06:11:11.002Z,11.20
2023-01-23T06:15:14.765Z,12.13
2023-01-23T06:19:15.883Z,22.50
2023-01-23T06:23:16.141Z,12.57
2023-01-23T06:27:16.224Z,12.37
2023-01-23T06:31:19.091Z,12.37
2023-01-23T06:35:26.668Z,11.30
2023-01-23T06:39:30.230Z,11.53
2023-01-23T06:43:31.278Z,13.13
2023-01-23T06:47:35.137Z,12.93
2023-01-23T06:51:36.433Z,12.10
2023-01-23T06:55:39.345Z,12.63
2023-01-23T06:59:40.305Z,11.93
2023-01-23T07:03:47.025Z,12.17
2023-01-23T07:07:47.229Z,12.53
2023-01-23T07:11:47.419Z,13.40
2023-01-23T07:15:50.231Z,13.43
2023-01-23T07:19:53.568Z,13.80
2023-01-23T07:23:53.747Z,11.77
2023-01-23T07:27:54.313Z,13.07
2023-01-23T07:31:54.428Z,12.10
2023-01-23T07:35:57.496Z,12.57
2023-01-23T07:39:57.580Z,13.03
2023-01-23T07:43:57.657Z,15.43
2023-01-23T07:47:57.660Z,14.10
2023-01-23T07:52:00.325Z,14.30
2023-01-23T07:56:02.360Z,14.03
2023-01-23T08:00:02.682Z,13.00
2023-01-23T08:04:12.517Z,11.93
2023-01-23T08:08:15.426Z,11.83
2023-01-23T08:12:15.944Z,12.07
2023-01-23T08:16:16.084Z,11.50
2023-01-23T08:20:16.350Z,10.80
2023-01-23T08:24:19.449Z,11.87
2023-01-23T08:28:19.526Z,12.27
2023-01-23T08:32:28.288Z,11.57
2023-01-23T08:36:31.391Z,12.43
2023-01-23T08:40:35.244Z,11.77
2023-01-23T08:44:35.367Z,11.30
2023-01-23T08:48:36.067Z,12.90
2023-01-23T08:52:36.659Z,11.30
2023-01-23T08:56:41.017Z,11.27
2023-01-23T09:00:41.111Z,11.60
2023-01-23T09:04:41.525Z,11.63
2023-01-23T09:08:42.610Z,11.33
2023-01-23T09:12:45.425Z,10.43
2023-01-23T09:16:45.518Z,10.40
2023-01-23T09:20:45.611Z,10.20
2023-01-23T09:24:45.792Z,10.87
2023-01-23T09:28:48.840Z,10.03
2023-01-23T09:32:48.893Z,10.00
2023-01-23T09:36:49.216Z,10.97
2023-01-23T09:40:53.478Z,11.63
2023-01-23T09:45:04.686Z,10.73
2023-01-23T09:49:14.359Z,10.10
2023-01-23T09:53:20.214Z,14.03
2023-01-23T09:57:27.622Z,10.20
2023-01-23T10:01:34.184Z,9.77
2023-01-23T10:05:46.461Z,8.90
2023-01-23T10:10:18.129Z,9.40
2023-01-23T10:14:49.278Z,9.17
2023-01-23T10:19:12.105Z,10.40
2023-01-23T10:23:42.102Z,9.27
2023-01-23T10:27:47.991Z,9.70
2023-01-23T10:31:57.687Z,9.20
2023-01-23T10:36:11.037Z,9.53
2023-01-23T10:40:17.321Z,9.23
2023-01-23T10:44:20.798Z,9.63
2023-01-23T10:48:45.322Z,10.07
2023-01-23T10:52:49.408Z,9.07
2023-01-23T10:57:01.692Z,9.13
2023-01-23T11:01:02.361Z,8.23
2023-01-23T11:05:03.887Z,8.20
2023-01-23T11:09:07.356Z,9.10
2023-01-23T11:13:07.700Z,8.40
2023-01-23T11:17:25.465Z,8.03
2023-01-23T11:21:30.346Z,9.97
2023-01-23T11:25:38.549Z,8.03
2023-01-23T11:30:04.972Z,8.90
2023-01-23T11:34:15.092Z,8.63
2023-01-23T11:38:30.488Z,7.23
2023-01-23T11:42:47.028Z,8.00
2023-01-23T11:47:37.746Z,7.43
2023-01-23T11:51:43.821Z,7.47
2023-01-23T11:56:12.236Z,7.03
2023-01-23T12:00:32.050Z,6.47
2023-01-23T12:04:54.327Z,6.73
2023-01-23T12:09:08.279Z,6.30
2023-01-23T12:13:26.968Z,6.33
2023-01-23T12:17:43.848Z,6.50
2023-01-23T12:21:55.931Z,6.47
2023-01-23T12:26:09.666Z,6.03
2023-01-23T12:30:56.522Z,6.60
2023-01-23T12:35:20.484Z,6.20
2023-01-23T12:39:46.664Z,6.40
2023-01-23T12:43:57.433Z,5.73
2023-01-23T12:48:09.820Z,6.13
2023-01-23T12:52:43.547Z,6.00
2023-01-23T12:56:45.250Z,5.67
2023-01-23T13:01:03.046Z,5.70
2023-01-23T13:05:21.739Z,6.20
2023-01-23T13:09:39.177Z,6.40
2023-01-23T13:13:39.856Z,6.43
2023-01-23T13:17:52.339Z,6.07
2023-01-23T13:22:22.265Z,5.80
2023-01-23T13:26:32.704Z,5.47
2023-01-23T13:30:48.117Z,5.20
2023-01-23T13:39:27.854Z,5.90
2023-01-23T13:43:58.538Z,5.47
2023-01-23T14:24:26.485Z,7.97
2023-01-23T14:28:37.572Z,7.27
2023-01-23T14:33:14.335Z,11.40
2023-01-23T14:37:22.752Z,10.10
2023-01-23T14:46:18.039Z,8.23
2023-01-23T14:50:24.404Z,10.93
2023-01-23T14:54:32.567Z,8.20
2023-01-23T14:58:35.273Z,8.30
2023-01-23T15:02:38.716Z,10.17
2023-01-23T15:06:39.482Z,9.30
2023-01-23T15:10:54.159Z,10.87
2023-01-23T15:15:00.857Z,9.60
2023-01-23T15:19:11.391Z,8.77
2023-01-23T15:23:32.317Z,10.43
2023-01-23T15:27:41.093Z,9.03
2023-01-23T15:31:50.188Z,8.50
2023-01-23T15:35:50.984Z,9.57
2023-01-23T15:39:55.397Z,9.37
2023-01-23T15:43:58.000Z,12.00
2023-01-23T15:47:58.083Z,10.90
2023-01-23T15:52:00.226Z,10.53
2023-01-23T15:56:01.623Z,9.70
2023-01-23T16:00:17.323Z,9.43
2023-01-23T16:04:18.502Z,9.63
2023-01-23T16:08:25.407Z,9.00
2023-01-23T16:12:32.877Z,10.50
2023-01-23T16:16:35.593Z,10.20
2023-01-23T16:20:39.546Z,10.70
2023-01-23T16:24:42.536Z,11.00
2023-01-23T16:28:42.621Z,10.00
2023-01-23T16:32:45.445Z,10.90
2023-01-23T16:36:45.689Z,11.30
2023-01-23T16:40:45.811Z,12.40
2023-01-23T16:44:45.902Z,11.33
2023-01-23T16:48:50.642Z,12.00
2023-01-23T16:53:01.786Z,12.93
2023-01-23T16:57:03.956Z,14.40
2023-01-23T17:01:07.884Z,12.07
2023-01-23T17:05:12.257Z,14.77
2023-01-23T17:09:14.234Z,13.43
2023-01-23T17:13:15.947Z,15.10
2023-01-23T17:17:23.225Z,13.57
2023-01-23T17:21:30.664Z,13.13
2023-01-23T17:25:31.902Z,11.90
2023-01-23T17:29:32.246Z,11.83
2023-01-23T17:33:36.466Z,11.53
2023-01-23T17:37:39.453Z,12.73
2023-01-23T17:41:39.658Z,13.23
2023-01-23T17:45:40.091Z,12.60
2023-01-23T17:49:41.372Z,12.47
2023-01-23T17:53:44.396Z,12.07
2023-01-23T17:57:45.101Z,13.07
2023-01-23T18:01:45.382Z,12.53
2023-01-23T18:05:45.446Z,12.10
2023-01-23T18:09:48.216Z,11.33
2023-01-23T18:14:11.122Z,11.20
2023-01-23T18:18:30.602Z,9.50
2023-01-23T18:22:31.587Z,11.40
2023-01-23T18:26:51.049Z,10.00
2023-01-23T18:31:03.025Z,10.40
2023-01-23T18:35:15.820Z,9.77
2023-01-23T18:39:39.989Z,10.63
2023-01-23T18:43:49.513Z,10.53
2023-01-23T18:47:50.615Z,10.23
2023-01-23T18:52:05.152Z,11.07
2023-01-23T18:56:22.558Z,14.27
2023-01-23T19:00:36.134Z,12.23
2023-01-23T19:04:46.232Z,15.50
2023-01-23T19:08:48.479Z,16.63
2023-01-23T19:13:06.348Z,15.70
2023-01-23T19:17:23.924Z,13.93
2023-01-23T19:21:28.423Z,14.60
2023-01-23T19:25:29.335Z,14.63
2023-01-23T19:29:30.216Z,14.67
2023-01-23T19:33:33.077Z,13.57
2023-01-23T19:37:33.125Z,13.33
2023-01-23T19:41:43.346Z,12.93
2023-01-23T19:45:45.505Z,11.57
2023-01-23T19:49:48.295Z,11.73
2023-01-23T19:53:49.394Z,11.10
2023-01-23T19:57:49.487Z,10.37
2023-01-23T20:01:53.702Z,10.77
2023-01-23T20:05:59.595Z,11.13
2023-01-23T20:10:00.167Z,10.67
2023-01-23T20:14:00.379Z,11.07
2023-01-23T20:18:00.431Z,11.50
2023-01-23T20:22:03.100Z,12.57
2023-01-23T20:26:04.657Z,12.73
2023-01-23T20:30:05.348Z,10.90
2023-01-23T20:34:05.694Z,11.43
2023-01-23T20:38:08.332Z,11.07
2023-01-23T20:42:10.708Z,11.43
2023-01-23T20:46:12.402Z,10.97
2023-01-23T20:50:14.509Z,11.03
2023-01-23T20:54:18.009Z,11.47
2023-01-23T20:58:30.541Z,12.53
2023-01-23T21:02:34.079Z,11.27
2023-01-23T21:06:34.482Z,11.47
2023-01-23T21:10:37.335Z,10.90
2023-01-23T21:14:37.718Z,11.13
2023-01-23T21:18:41.402Z,12.40
2023-01-23T21:22:41.454Z,11.00
2023-01-23T21:26:44.494Z,11.50
2023-01-23T21:30:44.798Z,11.50
2023-01-23T21:34:45.104Z,11.50
2023-01-23T21:38:45.502Z,11.67
2023-01-23T21:42:48.127Z,11.33
2023-01-23T21:46:49.283Z,10.87
2023-01-23T21:50:49.304Z,11.70
2023-01-23T21:54:49.331Z,11.80
2023-01-23T21:58:53.398Z,12.30
2023-01-23T22:02:53.683Z,12.00
2023-01-23T22:06:56.715Z,11.57
2023-01-23T22:10:56.804Z,12.03
2023-01-23T22:14:59.453Z,11.23
2023-01-23T22:18:59.523Z,12.00
2023-01-23T22:22:59.568Z,11.60
2023-01-23T22:26:59.885Z,11.13
2023-01-23T22:31:10.990Z,11.00
2023-01-23T22:35:12.278Z,11.80
2023-01-23T22:39:16.295Z,11.60
2023-01-23T22:43:16.338Z,11.63
2023-01-23T22:47:18.961Z,11.40
2023-01-23T22:51:23.663Z,11.33
2023-01-23T22:55:24.595Z,11.57
2023-01-23T22:59:24.702Z,11.23
2023-01-23T23:03:27.663Z,10.77
2023-01-23T23:07:27.862Z,10.83
2023-01-23T23:11:30.783Z,10.97
2023-01-23T23:15:31.481Z,10.90
2023-01-23T23:19:34.709Z,10.67
2023-01-23T23:23:35.219Z,11.07
2023-01-23T23:27:35.296Z,11.60
2023-01-23T23:31:35.633Z,11.73
2023-01-23T23:35:38.588Z,12.20
2023-01-23T23:39:38.693Z,11.47
2023-01-23T23:43:38.914Z,11.50
2023-01-23T23:47:38.904Z,11.17
2023-01-23T23:51:41.530Z,10.87
2023-01-23T23:55:41.627Z,10.93
2023-01-23T23:59:41.726Z,11.40
